createdAt,value
2022-08-12T00:00:15.926Z,101259.25
2022-08-12T00:00:56.664Z,101256.81
2022-08-12T00:02:02.692Z,101256.81
2022-08-12T00:02:37.323Z,101260.41
2022-08-12T00:03:20.538Z,101256.81
2022-08-12T00:04:01.690Z,101255.94
2022-08-12T00:04:42.032Z,101261.41
2022-08-12T00:05:23.035Z,101257.13
2022-08-12T00:06:05.068Z,101253.22
2022-08-12T00:06:46.956Z,101251.50
2022-08-12T00:07:27.948Z,101260.28
2022-08-12T00:08:09.349Z,101257.69
2022-08-12T00:08:51.268Z,101258.41
2022-08-12T00:09:32.555Z,101258.41
2022-08-12T00:10:13.607Z,101246.22
2022-08-12T00:10:54.152Z,101248.34
2022-08-12T00:11:34.370Z,101246.34
2022-08-12T00:12:14.985Z,101253.22
2022-08-12T00:12:56.327Z,101246.34
2022-08-12T00:13:36.767Z,101251.38
2022-08-12T00:14:18.505Z,101248.63
2022-08-12T00:14:58.757Z,101248.50
2022-08-12T00:15:39.010Z,101252.34
2022-08-12T00:16:19.865Z,101251.50
2022-08-12T00:17:01.465Z,101248.94
2022-08-12T00:17:41.881Z,101247.06
2022-08-12T00:19:26.236Z,101251.78
2022-08-12T00:20:06.681Z,101255.50
2022-08-12T00:20:47.076Z,101248.34
2022-08-12T00:21:27.428Z,101250.19
2022-08-12T00:22:07.836Z,101237.84
2022-08-12T00:22:55.255Z,101246.47
2022-08-12T00:23:40.215Z,101247.06
2022-08-12T00:24:21.817Z,101246.47
2022-08-12T00:25:02.083Z,101246.03
2022-08-12T00:26:19.021Z,101246.63
2022-08-12T00:26:42.603Z,101248.06
2022-08-12T00:27:27.381Z,101249.38
2022-08-12T00:28:24.699Z,101250.34
2022-08-12T00:29:05.318Z,101249.38
2022-08-12T00:29:48.299Z,101244.59
2022-08-12T00:30:30.213Z,101250.34
2022-08-12T00:31:11.138Z,101249.75
2022-08-12T00:31:54.701Z,101248.19
2022-08-12T00:32:56.751Z,101248.06
2022-08-12T00:33:51.652Z,101248.06
2022-08-12T00:34:32.704Z,101247.03
2022-08-12T00:35:12.714Z,101247.19
2022-08-12T00:35:52.692Z,101252.34
2022-08-12T00:36:35.893Z,101244.03
2022-08-12T00:37:16.848Z,101247.91
2022-08-12T00:37:58.292Z,101248.06
2022-08-12T00:38:38.792Z,101258.22
2022-08-12T00:39:19.568Z,101250.78
2022-08-12T00:40:00.715Z,101247.19
2022-08-12T00:40:45.776Z,101250.63
2022-08-12T00:41:26.645Z,101246.91
2022-08-12T00:42:08.420Z,101244.31
2022-08-12T00:42:30.097Z,101245.34
2022-08-12T00:42:54.214Z,101242.44
2022-08-12T00:43:16.594Z,101215.00
2022-08-12T00:43:38.299Z,101233.81
2022-08-12T00:44:03.277Z,101234.00
2022-08-12T00:44:26.016Z,101243.31
2022-08-12T00:44:52.504Z,101246.78
2022-08-12T00:45:14.826Z,101239.72
2022-08-12T00:45:51.531Z,101245.78
2022-08-12T00:46:31.179Z,101242.88
2022-08-12T00:46:55.836Z,101245.59
2022-08-12T00:47:25.277Z,101249.19
2022-08-12T00:47:48.841Z,101219.06
2022-08-12T00:48:10.714Z,101229.66
2022-08-12T00:48:33.769Z,101238.72
2022-08-12T00:48:58.212Z,101251.06
2022-08-12T00:49:23.289Z,101253.22
2022-08-12T00:49:50.116Z,101221.31
2022-08-12T00:50:18.933Z,101234.84
2022-08-12T00:50:42.342Z,101245.78
2022-08-12T00:51:06.386Z,101247.34
2022-08-12T00:51:51.724Z,101248.34
2022-08-12T00:52:15.633Z,101240.59
2022-08-12T00:52:37.339Z,101242.31
2022-08-12T00:53:00.553Z,101250.06
2022-08-12T00:53:23.217Z,101249.19
2022-08-12T00:53:45.106Z,101250.06
2022-08-12T00:54:07.778Z,101246.63
2022-08-12T00:54:29.448Z,101242.44
2022-08-12T00:54:57.005Z,101253.78
2022-08-12T00:55:21.378Z,101248.19
2022-08-12T00:55:44.801Z,101245.59
2022-08-12T00:56:10.668Z,101250.06
2022-08-12T00:56:32.525Z,101250.94
2022-08-12T00:56:55.189Z,101247.19
2022-08-12T00:57:21.389Z,101255.50
2022-08-12T00:57:47.720Z,101244.59
2022-08-12T00:58:10.210Z,101241.19
2022-08-12T00:58:32.129Z,101249.06
2022-08-12T00:58:57.490Z,101243.63
2022-08-12T00:59:19.196Z,101222.34
2022-08-12T00:59:46.923Z,101251.66
2022-08-12T01:00:15.148Z,101252.66
2022-08-12T01:00:42.462Z,101243.63
2022-08-12T01:01:07.588Z,101244.47
2022-08-12T01:01:30.370Z,101249.06
2022-08-12T01:02:16.114Z,101250.06
2022-08-12T01:02:41.702Z,101249.06
2022-08-12T01:03:08.713Z,101254.66
2022-08-12T01:03:54.364Z,101234.56
2022-08-12T01:04:38.899Z,101256.94
2022-08-12T01:05:20.952Z,101251.50
2022-08-12T01:06:04.527Z,101245.91
2022-08-12T01:06:51.163Z,101245.47
2022-08-12T01:07:36.897Z,101239.56
2022-08-12T01:08:32.177Z,101250.34
2022-08-12T01:09:12.217Z,101248.75
2022-08-12T01:09:52.768Z,101248.75
2022-08-12T01:10:33.387Z,101254.50
2022-08-12T01:11:15.382Z,101248.06
2022-08-12T01:11:38.409Z,101254.59
2022-08-12T01:12:00.541Z,101246.53
2022-08-12T01:12:22.339Z,101251.16
2022-08-12T01:12:44.249Z,101260.34
2022-08-12T01:13:19.509Z,101246.09
2022-08-12T01:13:47.209Z,101252.59
2022-08-12T01:14:09.211Z,101250.84
2022-08-12T01:14:33.190Z,101253.44
2022-08-12T01:14:54.993Z,101248.84
2022-08-12T01:15:18.373Z,101255.03
2022-08-12T01:15:40.124Z,101255.03
2022-08-12T01:16:04.958Z,101253.16
2022-08-12T01:16:27.153Z,101247.13
2022-08-12T01:16:48.890Z,101251.44
2022-08-12T01:17:11.624Z,101257.00
2022-08-12T01:17:33.989Z,101255.16
2022-08-12T01:17:56.787Z,101255.31
2022-08-12T01:18:20.540Z,101251.84
2022-08-12T01:18:43.228Z,101255.44
2022-08-12T01:19:06.172Z,101254.56
2022-08-12T01:19:27.921Z,101253.28
2022-08-12T01:19:53.149Z,101257.44
2022-08-12T01:20:25.948Z,101251.00
2022-08-12T01:21:04.204Z,101257.31
2022-08-12T01:22:02.653Z,101256.44
2022-08-12T01:22:34.474Z,101256.56
2022-08-12T01:23:15.358Z,101252.16
2022-08-12T01:24:28.252Z,101258.59
2022-08-12T01:24:56.833Z,101255.13
2022-08-12T01:25:23.791Z,101259.88
2022-08-12T01:25:56.305Z,101241.66
2022-08-12T01:26:20.901Z,101250.97
2022-08-12T01:26:46.919Z,101253.44
2022-08-12T01:27:12.034Z,101258.88
2022-08-12T01:27:35.717Z,101230.00
2022-08-12T01:28:01.809Z,101256.16
2022-08-12T01:28:27.016Z,101259.72
2022-08-12T01:28:52.433Z,101239.06
2022-08-12T01:29:18.678Z,101264.03
2022-08-12T01:29:44.049Z,101249.97
2022-08-12T01:30:09.265Z,101262.00
2022-08-12T01:30:33.845Z,101254.00
2022-08-12T01:30:58.734Z,101263.16
2022-08-12T01:31:20.854Z,101259.44
2022-08-12T01:31:47.131Z,101259.59
2022-08-12T01:32:12.763Z,101255.13
2022-08-12T01:32:37.647Z,101264.47
2022-08-12T01:33:02.654Z,101262.84
2022-08-12T01:33:27.923Z,101255.56
2022-08-12T01:33:59.818Z,101253.69
2022-08-12T01:34:36.382Z,101258.28
2022-08-12T01:35:07.604Z,101257.28
2022-08-12T01:35:31.641Z,101257.41
2022-08-12T01:36:08.663Z,101254.84
2022-08-12T01:36:36.446Z,101257.41
2022-08-12T01:37:02.939Z,101256.53
2022-08-12T01:37:26.394Z,101253.13
2022-08-12T01:37:57.651Z,101256.97
2022-08-12T01:38:21.112Z,101238.03
2022-08-12T01:38:56.295Z,101254.09
2022-08-12T01:39:18.279Z,101242.03
2022-08-12T01:40:35.138Z,101258.56
2022-08-12T01:40:39.783Z,101250.38
2022-08-12T01:41:05.389Z,101259.56
2022-08-12T01:41:30.872Z,101249.81
2022-08-12T01:41:55.100Z,101253.97
2022-08-12T01:42:21.231Z,101257.56
2022-08-12T01:42:45.334Z,101243.19
2022-08-12T01:43:09.145Z,101255.66
2022-08-12T01:43:31.791Z,101257.13
2022-08-12T01:43:55.573Z,101228.66
2022-08-12T01:44:20.674Z,101242.19
2022-08-12T01:44:44.809Z,101255.41
2022-08-12T01:45:07.613Z,101249.63
2022-08-12T01:45:40.531Z,101250.94
2022-08-12T01:46:09.723Z,101253.78
2022-08-12T01:46:43.312Z,101260.25
2022-08-12T01:47:16.721Z,101259.41
2022-08-12T01:47:51.495Z,101263.00
2022-08-12T01:48:25.285Z,101244.19
2022-08-12T01:49:02.346Z,101250.50
2022-08-12T01:49:50.281Z,101248.75
2022-08-12T01:50:21.871Z,101252.66
2022-08-12T01:50:54.987Z,101254.78
2022-08-12T01:52:15.601Z,101251.31
2022-08-12T01:52:29.405Z,101248.47
2022-08-12T01:52:59.109Z,101250.47
2022-08-12T01:53:25.248Z,101248.59
2022-08-12T01:54:04.678Z,101242.16
2022-08-12T01:54:29.418Z,101248.47
2022-08-12T01:54:52.562Z,101247.63
2022-08-12T01:55:19.389Z,101245.00
2022-08-12T01:55:45.218Z,101248.59
2022-08-12T01:56:08.560Z,101245.16
2022-08-12T01:56:34.914Z,101241.84
2022-08-12T01:57:05.418Z,101244.56
2022-08-12T01:57:57.241Z,101250.44
2022-08-12T01:58:28.850Z,101248.56
2022-08-12T01:59:12.925Z,101248.56
2022-08-12T01:59:50.204Z,101249.03
2022-08-12T02:00:14.599Z,101239.06
2022-08-12T02:00:55.310Z,101244.22
2022-08-12T02:01:23.609Z,101242.13
2022-08-12T02:01:51.465Z,101245.94
2022-08-12T02:02:16.808Z,101247.69
2022-08-12T02:02:44.586Z,101245.22
2022-08-12T02:03:28.355Z,101241.25
2022-08-12T02:04:21.442Z,101241.97
2022-08-12T02:05:14.410Z,101244.38
2022-08-12T02:06:06.357Z,101247.69
2022-08-12T02:06:54.417Z,101245.06
2022-08-12T02:07:43.091Z,101249.81
2022-08-12T02:08:36.108Z,101245.50
2022-08-12T02:09:19.234Z,101242.06
2022-08-12T02:10:49.957Z,101237.47
2022-08-12T02:11:21.372Z,101246.19
2022-08-12T02:11:53.801Z,101242.59
2022-08-12T02:12:28.600Z,101245.44
2022-08-12T02:13:03.109Z,101245.72
2022-08-12T02:13:49.655Z,101251.19
2022-08-12T02:14:42.095Z,101238.97
2022-08-12T02:15:13.261Z,101236.91
2022-08-12T02:15:46.197Z,101246.84
2022-08-12T02:16:15.825Z,101240.41
2022-08-12T02:16:51.000Z,101205.47
2022-08-12T02:17:55.119Z,101244.41
2022-08-12T02:18:24.070Z,101227.88
2022-08-12T02:18:55.653Z,101242.81
2022-08-12T02:19:39.541Z,101248.25
2022-08-12T02:20:11.211Z,101226.72
2022-08-12T02:20:52.372Z,101244.69
2022-08-12T02:21:24.675Z,101214.78
2022-08-12T02:21:56.212Z,101245.94
2022-08-12T02:22:30.946Z,101251.53
2022-08-12T02:22:54.510Z,101244.63
2022-08-12T02:23:19.315Z,101248.66
2022-08-12T02:23:42.019Z,101248.81
2022-08-12T02:24:04.729Z,101239.47
2022-08-12T02:24:31.257Z,101252.41
2022-08-12T02:24:54.150Z,101248.81
2022-08-12T02:25:20.944Z,101246.34
2022-08-12T02:25:45.401Z,101245.34
2022-08-12T02:26:13.006Z,101248.81
2022-08-12T02:26:38.905Z,101249.81
2022-08-12T02:27:04.397Z,101249.94
2022-08-12T02:27:28.753Z,101250.22
2022-08-12T02:27:53.212Z,101250.47
2022-08-12T02:28:15.380Z,101251.50
2022-08-12T02:28:38.900Z,101242.19
2022-08-12T02:29:01.998Z,101239.56
2022-08-12T02:29:24.765Z,101243.44
2022-08-12T02:29:48.218Z,101245.03
2022-08-12T02:30:12.752Z,101246.16
2022-08-12T02:30:41.614Z,101246.28
2022-08-12T02:31:06.358Z,101230.91
2022-08-12T02:31:31.269Z,101238.53
2022-08-12T02:31:53.830Z,101242.88
2022-08-12T02:32:16.207Z,101244.72
2022-08-12T02:32:40.578Z,101252.13
2022-08-12T02:33:05.167Z,101223.66
2022-08-12T02:33:27.156Z,101246.00
2022-08-12T02:33:49.452Z,101221.78
2022-08-12T02:34:12.824Z,101245.13
2022-08-12T02:34:36.061Z,101245.25
2022-08-12T02:34:59.110Z,101247.69
2022-08-12T02:35:25.087Z,101236.09
2022-08-12T02:35:48.546Z,101252.41
2022-08-12T02:36:11.200Z,101248.84
2022-08-12T02:36:34.266Z,101251.69
2022-08-12T02:37:02.606Z,101250.69
2022-08-12T02:37:27.553Z,101245.38
2022-08-12T02:37:53.379Z,101253.69
2022-08-12T02:38:17.399Z,101254.66
2022-08-12T02:38:42.447Z,101251.34
2022-08-12T02:39:05.905Z,101253.78
2022-08-12T02:39:29.999Z,101247.75
2022-08-12T02:39:55.287Z,101249.44
2022-08-12T02:40:19.500Z,101248.16
2022-08-12T02:40:45.307Z,101234.81
2022-08-12T02:41:11.791Z,101258.63
2022-08-12T02:41:36.860Z,101254.31
2022-08-12T02:42:02.153Z,101252.56
2022-08-12T02:42:26.270Z,101253.31
2022-08-12T02:42:53.649Z,101264.31
2022-08-12T02:43:22.144Z,101251.13
2022-08-12T02:43:51.210Z,101248.53
2022-08-12T02:44:16.181Z,101248.69
2022-08-12T02:44:40.401Z,101247.69
2022-08-12T02:45:06.664Z,101256.84
2022-08-12T02:45:39.117Z,101247.06
2022-08-12T02:46:04.473Z,101240.69
2022-08-12T02:46:30.466Z,101252.78
2022-08-12T02:46:57.387Z,101252.91
2022-08-12T02:47:58.720Z,101227.88
2022-08-12T02:48:09.343Z,101250.47
2022-08-12T02:48:46.481Z,101255.31
2022-08-12T02:49:14.649Z,101259.00
2022-08-12T02:49:43.920Z,101261.84
2022-08-12T02:50:07.794Z,101254.69
2022-08-12T02:50:34.068Z,101247.50
2022-08-12T02:50:58.213Z,101246.69
2022-08-12T02:51:23.510Z,101252.25
2022-08-12T02:51:46.337Z,101252.38
2022-08-12T02:52:10.206Z,101252.63
2022-08-12T02:52:33.540Z,101249.91
2022-08-12T02:52:56.828Z,101253.50
2022-08-12T02:53:19.644Z,101256.06
2022-08-12T02:53:41.829Z,101252.63
2022-08-12T02:54:06.462Z,101247.91
2022-08-12T02:54:28.410Z,101260.63
2022-08-12T02:54:57.830Z,101254.38
2022-08-12T02:55:28.972Z,101252.38
2022-08-12T02:55:59.883Z,101253.34
2022-08-12T02:56:23.150Z,101252.47
2022-08-12T02:56:47.235Z,101258.06
2022-08-12T02:57:13.245Z,101248.47
2022-08-12T02:57:35.648Z,101259.06
2022-08-12T02:57:59.425Z,101254.59
2022-08-12T02:58:33.101Z,101247.91
2022-08-12T02:58:56.853Z,101259.81
2022-08-12T02:59:21.351Z,101255.47
2022-08-12T02:59:43.785Z,101256.06
2022-08-12T03:00:07.871Z,101260.63
2022-08-12T03:00:29.859Z,101257.69
2022-08-12T03:00:52.004Z,101259.41
2022-08-12T03:01:14.258Z,101255.69
2022-08-12T03:01:42.640Z,101258.38
2022-08-12T03:02:12.333Z,101260.28
2022-08-12T03:02:38.453Z,101261.25
2022-08-12T03:03:06.298Z,101266.69
2022-08-12T03:03:32.298Z,101264.00
2022-08-12T03:03:59.637Z,101245.75
2022-08-12T03:04:26.678Z,101251.09
2022-08-12T03:04:57.224Z,101261.00
2022-08-12T03:05:24.219Z,101241.69
2022-08-12T03:05:52.512Z,101256.06
2022-08-12T03:06:18.560Z,101258.78
2022-08-12T03:06:43.692Z,101254.38
2022-08-12T03:07:14.545Z,101256.34
2022-08-12T03:07:59.071Z,101263.25
2022-08-12T03:08:31.757Z,101257.28
2022-08-12T03:08:58.960Z,101251.97
2022-08-12T03:09:25.529Z,101257.56
2022-08-12T03:10:05.173Z,101245.47
2022-08-12T03:10:36.809Z,101239.09
2022-08-12T03:11:03.644Z,101246.84
2022-08-12T03:11:42.929Z,101262.25
2022-08-12T03:12:20.041Z,101239.84
2022-08-12T03:12:48.868Z,101261.38
2022-08-12T03:13:17.523Z,101261.25
2022-08-12T03:13:43.408Z,101261.25
2022-08-12T03:14:07.841Z,101262.38
2022-08-12T03:14:34.429Z,101246.84
2022-08-12T03:14:58.461Z,101264.97
2022-08-12T03:15:23.803Z,101266.69
2022-08-12T03:15:45.998Z,101270.28
2022-08-12T03:16:07.939Z,101265.56
2022-08-12T03:16:33.233Z,101266.56
2022-08-12T03:17:11.364Z,101264.00
2022-08-12T03:17:39.308Z,101260.28
2022-08-12T03:18:26.275Z,101259.53
2022-08-12T03:18:51.533Z,101256.06
2022-08-12T03:19:13.894Z,101256.81
2022-08-12T03:19:37.690Z,101253.34
2022-08-12T03:20:23.490Z,101244.59
2022-08-12T03:20:48.404Z,101245.47
2022-08-12T03:21:13.440Z,101203.28
2022-08-12T03:21:57.972Z,101257.41
2022-08-12T03:22:21.916Z,101253.09
2022-08-12T03:22:45.387Z,101256.41
2022-08-12T03:23:09.948Z,101252.25
2022-08-12T03:23:42.793Z,101256.81
2022-08-12T03:24:06.746Z,101258.38
2022-08-12T03:24:29.996Z,101266.44
2022-08-12T03:24:51.749Z,101261.00
2022-08-12T03:25:16.356Z,101256.41
2022-08-12T03:25:41.272Z,101261.13
2022-08-12T03:26:03.499Z,101233.19
2022-08-12T03:26:30.094Z,101254.59
2022-08-12T03:26:53.629Z,101261.66
2022-08-12T03:27:16.543Z,101244.25
2022-08-12T03:27:55.624Z,101259.06
2022-08-12T03:28:39.594Z,101252.75
2022-08-12T03:29:06.584Z,101260.78
2022-08-12T03:29:30.786Z,101262.06
2022-08-12T03:29:57.085Z,101241.94
2022-08-12T03:30:20.215Z,101263.03
2022-08-12T03:30:43.477Z,101263.91
2022-08-12T03:31:07.589Z,101256.75
2022-08-12T03:31:32.246Z,101257.84
2022-08-12T03:32:00.712Z,101263.03
2022-08-12T03:32:36.043Z,101247.25
2022-08-12T03:33:01.290Z,101266.88
2022-08-12T03:33:25.450Z,101264.91
2022-08-12T03:34:01.572Z,101260.31
2022-08-12T03:34:29.603Z,101260.31
2022-08-12T03:34:55.477Z,101258.59
2022-08-12T03:35:41.433Z,101264.31
2022-08-12T03:36:07.008Z,101260.72
2022-08-12T03:36:29.820Z,101263.56
2022-08-12T03:36:55.600Z,101259.25
2022-08-12T03:37:20.417Z,101263.31
2022-08-12T03:37:45.557Z,101264.19
2022-08-12T03:38:09.488Z,101266.16
2022-08-12T03:38:35.233Z,101259.13
2022-08-12T03:39:19.756Z,101261.84
2022-08-12T03:39:47.428Z,101261.97
2022-08-12T03:40:30.344Z,101262.84
2022-08-12T03:41:16.304Z,101267.53
2022-08-12T03:41:48.156Z,101259.50
2022-08-12T03:42:25.695Z,101259.75
2022-08-12T03:43:08.840Z,101260.91
2022-08-12T03:43:53.611Z,101254.44
2022-08-12T03:44:41.068Z,101253.56
2022-08-12T03:45:51.830Z,101260.41
2022-08-12T03:46:38.985Z,101259.16
2022-08-12T03:47:23.271Z,101254.44
2022-08-12T03:48:18.685Z,101260.03
2022-08-12T03:49:00.048Z,101251.13
2022-08-12T03:49:40.366Z,101250.38
2022-08-12T03:50:22.541Z,101247.22
2022-08-12T03:51:04.091Z,101261.63
2022-08-12T03:51:44.949Z,101262.88
2022-08-12T03:52:25.464Z,101263.03
2022-08-12T03:53:05.957Z,101257.25
2022-08-12T03:53:49.065Z,101247.47
2022-08-12T03:54:29.405Z,101249.47
2022-08-12T03:55:09.570Z,101262.78
2022-08-12T03:55:49.852Z,101256.63
2022-08-12T03:56:30.305Z,101261.22
2022-08-12T03:57:11.713Z,101252.56
2022-08-12T03:57:53.241Z,101264.63
2022-08-12T03:58:34.619Z,101267.34
2022-08-12T03:59:17.375Z,101265.50
2022-08-12T03:59:57.710Z,101267.50
2022-08-12T04:00:24.755Z,101258.72
2022-08-12T04:00:47.062Z,101269.22
2022-08-12T04:01:08.939Z,101259.34
2022-08-12T04:01:31.356Z,101263.91
2022-08-12T04:02:03.147Z,101273.78
2022-08-12T04:02:25.813Z,101264.63
2022-08-12T04:02:55.790Z,101264.63
2022-08-12T04:03:37.972Z,101252.31
2022-08-12T04:04:03.991Z,101263.91
2022-08-12T04:04:28.563Z,101259.22
2022-08-12T04:04:50.377Z,101253.94
2022-08-12T04:05:12.798Z,101257.47
2022-08-12T04:05:54.515Z,101266.63
2022-08-12T04:06:34.848Z,101253.66
2022-08-12T04:06:58.062Z,101254.03
2022-08-12T04:07:21.105Z,101258.34
2022-08-12T04:07:51.316Z,101260.19
2022-08-12T04:08:25.104Z,101243.19
2022-08-12T04:08:48.117Z,101268.50
2022-08-12T04:09:14.703Z,101258.59
2022-08-12T04:09:41.456Z,101262.66
2022-08-12T04:10:04.238Z,101262.66
2022-08-12T04:10:48.106Z,101260.94
2022-08-12T04:11:32.097Z,101264.41
2022-08-12T04:12:15.102Z,101262.78
2022-08-12T04:12:55.467Z,101269.84
2022-08-12T04:13:21.121Z,101267.84
2022-08-12T04:13:45.258Z,101264.41
2022-08-12T04:14:07.762Z,101268.09
2022-08-12T04:14:29.542Z,101259.22
2022-08-12T04:14:52.933Z,101262.78
2022-08-12T04:15:19.942Z,101264.41
2022-08-12T04:15:44.007Z,101270.94
2022-08-12T04:16:07.862Z,101272.94
2022-08-12T04:16:29.782Z,101270.06
2022-08-12T04:16:51.711Z,101267.50
2022-08-12T04:17:16.039Z,101270.81
2022-08-12T04:17:39.944Z,101265.13
2022-08-12T04:18:23.069Z,101268.72
2022-08-12T04:18:46.357Z,101263.53
2022-08-12T04:19:08.098Z,101272.41
2022-08-12T04:19:30.889Z,101253.28
2022-08-12T04:19:53.149Z,101266.09
2022-08-12T04:20:19.263Z,101267.84
2022-08-12T04:20:42.884Z,101271.44
2022-08-12T04:21:07.385Z,101273.16
2022-08-12T04:21:32.356Z,101276.00
2022-08-12T04:22:01.839Z,101273.28
2022-08-12T04:22:30.239Z,101265.13
2022-08-12T04:22:55.239Z,101268.09
2022-08-12T04:23:17.560Z,101265.50
2022-08-12T04:23:46.206Z,101268.09
2022-08-12T04:24:10.806Z,101274.41
2022-08-12T04:24:35.871Z,101266.25
2022-08-12T04:25:01.480Z,101268.97
2022-08-12T04:25:25.313Z,101228.16
2022-08-12T04:25:46.967Z,101269.84
2022-08-12T04:26:10.349Z,101268.22
2022-08-12T04:26:32.650Z,101264.03
2022-08-12T04:26:55.927Z,101259.84
2022-08-12T04:27:17.631Z,101264.78
2022-08-12T04:27:41.140Z,101253.28
2022-08-12T04:28:13.232Z,101261.44
2022-08-12T04:28:35.718Z,101265.78
2022-08-12T04:28:58.745Z,101269.47
2022-08-12T04:29:22.037Z,101262.31
2022-08-12T04:30:16.963Z,101267.88
2022-08-12T04:30:48.217Z,101263.66
2022-08-12T04:31:10.122Z,101256.66
2022-08-12T04:31:32.490Z,101266.38
2022-08-12T04:31:55.984Z,101260.25
2022-08-12T04:32:17.700Z,101262.94
2022-08-12T04:32:44.290Z,101271.81
2022-08-12T04:33:08.891Z,101264.53
2022-08-12T04:33:32.228Z,101262.94
2022-08-12T04:33:54.187Z,101263.19
2022-08-12T04:34:17.500Z,101264.53
2022-08-12T04:34:39.360Z,101264.53
2022-08-12T04:35:01.419Z,101263.94
2022-08-12T04:35:23.187Z,101247.63
2022-08-12T04:35:46.840Z,101262.94
2022-08-12T04:36:09.357Z,101272.09
2022-08-12T04:36:31.393Z,101257.63
2022-08-12T04:36:54.065Z,101262.94
2022-08-12T04:37:16.525Z,101272.94
2022-08-12T04:37:58.724Z,101258.75
2022-08-12T04:38:21.182Z,101267.53
2022-08-12T04:38:44.286Z,101270.94
2022-08-12T04:39:07.732Z,101267.41
2022-08-12T04:39:30.142Z,101269.00
2022-08-12T04:39:52.836Z,101264.53
2022-08-12T04:40:17.073Z,101268.00
2022-08-12T04:40:50.147Z,101274.31
2022-08-12T04:41:12.323Z,101262.81
2022-08-12T04:41:37.233Z,101262.56
2022-08-12T04:42:20.366Z,101272.19
2022-08-12T04:42:42.167Z,101277.50
2022-08-12T04:43:05.448Z,101265.63
2022-08-12T04:44:01.159Z,101273.78
2022-08-12T04:44:10.835Z,101275.50
2022-08-12T04:44:33.530Z,101270.94
2022-08-12T04:44:55.242Z,101263.78
2022-08-12T04:45:19.316Z,101261.44
2022-08-12T04:45:44.442Z,101262.06
2022-08-12T04:46:07.478Z,101272.56
2022-08-12T04:46:34.412Z,101270.56
2022-08-12T04:46:56.843Z,101265.28
2022-08-12T04:47:21.216Z,101266.09
2022-08-12T04:47:44.189Z,101266.97
2022-08-12T04:48:07.352Z,101265.28
2022-08-12T04:48:29.010Z,101269.84
2022-08-12T04:48:52.284Z,101260.47
2022-08-12T04:49:14.016Z,101259.22
2022-08-12T04:49:37.286Z,101266.97
2022-08-12T04:49:59.626Z,101268.81
2022-08-12T04:50:34.112Z,101262.41
2022-08-12T04:50:57.995Z,101266.09
2022-08-12T04:51:21.947Z,101218.38
2022-08-12T04:51:43.987Z,101275.78
2022-08-12T04:52:19.530Z,101259.75
2022-08-12T04:52:42.547Z,101272.06
2022-08-12T04:53:05.958Z,101276.75
2022-08-12T04:53:28.585Z,101271.44
2022-08-12T04:53:50.850Z,101271.59
2022-08-12T04:54:13.541Z,101278.88
2022-08-12T04:54:39.911Z,101270.59
2022-08-12T04:55:03.080Z,101270.72
2022-08-12T04:55:25.364Z,101274.31
2022-08-12T04:55:48.138Z,101264.53
2022-08-12T04:56:11.865Z,101269.75
2022-08-12T04:56:35.381Z,101268.72
2022-08-12T04:57:03.266Z,101267.03
2022-08-12T04:57:27.961Z,101269.59
2022-08-12T04:57:50.715Z,101263.44
2022-08-12T04:58:29.781Z,101266.00
2022-08-12T04:59:08.021Z,101268.59
2022-08-12T05:00:15.861Z,101266.50
2022-08-12T05:01:07.178Z,101273.78
2022-08-12T05:01:37.802Z,101271.22
2022-08-12T05:02:16.541Z,101266.88
2022-08-12T05:02:57.335Z,101271.31
2022-08-12T05:03:25.729Z,101262.06
2022-08-12T05:04:24.892Z,101266.88
2022-08-12T05:05:03.684Z,101267.75
2022-08-12T05:05:36.449Z,101267.63
2022-08-12T05:06:20.737Z,101274.91
2022-08-12T05:06:59.027Z,101275.03
2022-08-12T05:07:53.653Z,101273.16
2022-08-12T05:08:22.493Z,101270.34
2022-08-12T05:08:48.674Z,101267.03
2022-08-12T05:09:22.197Z,101270.34
2022-08-12T05:10:02.035Z,101263.16
2022-08-12T05:10:33.418Z,101270.44
2022-08-12T05:10:59.446Z,101263.28
2022-08-12T05:11:22.997Z,101275.88
2022-08-12T05:11:53.885Z,101267.75
2022-08-12T05:12:18.091Z,101266.75
2022-08-12T05:12:44.804Z,101274.78
2022-08-12T05:13:09.294Z,101273.78
2022-08-12T05:13:35.198Z,101266.63
2022-08-12T05:13:59.953Z,101277.25
2022-08-12T05:14:23.868Z,101262.91
2022-08-12T05:14:45.786Z,101266.38
2022-08-12T05:15:19.191Z,101263.78
2022-08-12T05:16:03.839Z,101263.78
2022-08-12T05:16:31.081Z,101254.53
2022-08-12T05:16:54.549Z,101269.34
2022-08-12T05:17:16.585Z,101264.91
2022-08-12T05:17:40.857Z,101280.06
2022-08-12T05:18:19.032Z,101271.22
2022-08-12T05:18:45.741Z,101277.25
2022-08-12T05:19:12.693Z,101266.50
2022-08-12T05:19:37.294Z,101266.09
2022-08-12T05:19:59.030Z,101272.28
2022-08-12T05:20:25.914Z,101266.09
2022-08-12T05:20:48.540Z,101269.56
2022-08-12T05:21:11.227Z,101267.84
2022-08-12T05:21:33.691Z,101262.41
2022-08-12T05:21:55.362Z,101266.84
2022-08-12T05:22:20.153Z,101268.81
2022-08-12T05:22:45.261Z,101265.28
2022-08-12T05:23:12.581Z,101266.09
2022-08-12T05:23:36.890Z,101270.56
2022-08-12T05:23:59.576Z,101270.06
2022-08-12T05:24:21.305Z,101269.84
2022-08-12T05:24:44.097Z,101268.22
2022-08-12T05:25:07.795Z,101270.72
2022-08-12T05:25:29.687Z,101272.56
2022-08-12T05:25:56.353Z,101269.84
2022-08-12T05:26:18.228Z,101266.09
2022-08-12T05:26:41.978Z,101270.44
2022-08-12T05:27:03.704Z,101261.53
2022-08-12T05:27:26.424Z,101268.81
2022-08-12T05:27:57.818Z,101269.84
2022-08-12T05:28:21.569Z,101262.91
2022-08-12T05:28:43.241Z,101269.84
2022-08-12T05:30:06.650Z,101267.84
2022-08-12T05:30:07.233Z,101260.34
2022-08-12T05:30:30.950Z,101267.25
2022-08-12T05:30:53.344Z,101268.97
2022-08-12T05:31:40.438Z,101274.16
2022-08-12T05:31:59.542Z,101270.31
2022-08-12T05:32:21.245Z,101265.88
2022-08-12T05:32:43.888Z,101272.03
2022-08-12T05:33:06.421Z,101271.91
2022-08-12T05:33:38.323Z,101260.56
2022-08-12T05:34:00.952Z,101265.00
2022-08-12T05:34:26.610Z,101277.47
2022-08-12T05:34:48.520Z,101285.59
2022-08-12T05:35:11.290Z,101272.03
2022-08-12T05:35:36.839Z,101264.88
2022-08-12T05:35:58.956Z,101265.59
2022-08-12T05:36:21.649Z,101272.78
2022-08-12T05:36:44.009Z,101276.25
2022-08-12T05:37:05.610Z,101268.47
2022-08-12T05:37:27.330Z,101264.88
2022-08-12T05:37:49.201Z,101264.75
2022-08-12T05:38:31.732Z,101266.47
2022-08-12T05:38:57.716Z,101256.97
2022-08-12T05:39:19.399Z,101257.34
2022-08-12T05:39:41.895Z,101271.03
2022-08-12T05:40:10.648Z,101274.63
2022-08-12T05:40:34.002Z,101262.88
2022-08-12T05:40:56.119Z,101260.81
2022-08-12T05:41:21.006Z,101267.94
2022-08-12T05:41:44.433Z,101255.59
2022-08-12T05:42:06.490Z,101262.50
2022-08-12T05:42:32.557Z,101262.66
2022-08-12T05:42:57.373Z,101259.19
2022-08-12T05:43:19.933Z,101260.19
2022-08-12T05:43:42.652Z,101265.50
2022-08-12T05:44:10.027Z,101265.38